sensor_id;sensor_type;location;lat;lon;timestamp;P1;durP1;ratioP1;P2;durP2;ratioP2
45676;SDS011;31390;51.186;6.830;2023-04-07T00:01:01;161.70;;;82.38;;
45676;SDS011;31390;51.186;6.830;2023-04-07T00:03:28;268.50;;;111.70;;
45676;SDS011;31390;51.186;6.830;2023-04-07T00:05:55;230.18;;;103.70;;
45676;SDS011;31390;51.186;6.830;2023-04-07T00:08:21;145.98;;;82.05;;
45676;SDS011;31390;51.186;6.830;2023-04-07T00:10:48;194.35;;;92.45;;
45676;SDS011;31390;51.186;6.830;2023-04-07T00:13:14;265.90;;;106.00;;
45676;SDS011;31390;51.186;6.830;2023-04-07T00:15:41;240.32;;;101.55;;
45676;SDS011;31390;51.186;6.830;2023-04-07T00:18:08;280.15;;;104.50;;
45676;SDS011;31390;51.186;6.830;2023-04-07T00:20:34;149.77;;;76.03;;
45676;SDS011;31390;51.186;6.830;2023-04-07T00:23:01;231.73;;;96.53;;
45676;SDS011;31390;51.186;6.830;2023-04-07T00:25:27;227.77;;;98.65;;
45676;SDS011;31390;51.186;6.830;2023-04-07T00:27:54;173.57;;;83.95;;
45676;SDS011;31390;51.186;6.830;2023-04-07T00:30:20;311.23;;;114.47;;
45676;SDS011;31390;51.186;6.830;2023-04-07T00:32:47;188.82;;;85.68;;
45676;SDS011;31390;51.186;6.830;2023-04-07T00:35:14;275.77;;;113.35;;
45676;SDS011;31390;51.186;6.830;2023-04-07T00:37:41;272.23;;;110.75;;
45676;SDS011;31390;51.186;6.830;2023-04-07T00:40:07;187.70;;;84.68;;
45676;SDS011;31390;51.186;6.830;2023-04-07T00:42:34;278.73;;;106.80;;
45676;SDS011;31390;51.186;6.830;2023-04-07T00:45:01;345.17;;;117.75;;
45676;SDS011;31390;51.186;6.830;2023-04-07T00:47:27;312.45;;;121.25;;
45676;SDS011;31390;51.186;6.830;2023-04-07T00:49:54;298.02;;;109.53;;
45676;SDS011;31390;51.186;6.830;2023-04-07T00:52:20;223.55;;;89.93;;
45676;SDS011;31390;51.186;6.830;2023-04-07T00:54:53;239.40;;;94.90;;
45676;SDS011;31390;51.186;6.830;2023-04-07T00:57:21;341.42;;;116.93;;
45676;SDS011;31390;51.186;6.830;2023-04-07T00:59:48;394.38;;;136.13;;
45676;SDS011;31390;51.186;6.830;2023-04-07T01:02:16;257.33;;;107.05;;
45676;SDS011;31390;51.186;6.830;2023-04-07T01:04:50;215.20;;;100.32;;
45676;SDS011;31390;51.186;6.830;2023-04-07T01:08:06;236.60;;;97.13;;
45676;SDS011;31390;51.186;6.830;2023-04-07T01:10:11;325.65;;;111.20;;
45676;SDS011;31390;51.186;6.830;2023-04-07T01:12:53;165.18;;;77.57;;
45676;SDS011;31390;51.186;6.830;2023-04-07T01:15:23;232.60;;;105.38;;
45676;SDS011;31390;51.186;6.830;2023-04-07T01:17:56;412.23;;;143.32;;
45676;SDS011;31390;51.186;6.830;2023-04-07T01:20:24;470.05;;;153.35;;
45676;SDS011;31390;51.186;6.830;2023-04-07T01:22:58;258.25;;;118.53;;
45676;SDS011;31390;51.186;6.830;2023-04-07T01:28:14;389.45;;;132.82;;
45676;SDS011;31390;51.186;6.830;2023-04-07T01:30:51;389.15;;;133.90;;
45676;SDS011;31390;51.186;6.830;2023-04-07T01:33:22;217.75;;;100.97;;
45676;SDS011;31390;51.186;6.830;2023-04-07T01:35:48;181.13;;;85.35;;
45676;SDS011;31390;51.186;6.830;2023-04-07T01:38:15;164.18;;;70.75;;
45676;SDS011;31390;51.186;6.830;2023-04-07T01:40:42;481.92;;;151.27;;
45676;SDS011;31390;51.186;6.830;2023-04-07T01:43:09;431.50;;;140.25;;
45676;SDS011;31390;51.186;6.830;2023-04-07T01:45:36;381.83;;;111.80;;
45676;SDS011;31390;51.186;6.830;2023-04-07T01:48:04;333.90;;;113.93;;
45676;SDS011;31390;51.186;6.830;2023-04-07T01:50:31;469.92;;;146.18;;
45676;SDS011;31390;51.186;6.830;2023-04-07T01:52:58;287.85;;;97.63;;
45676;SDS011;31390;51.186;6.830;2023-04-07T01:55:25;304.75;;;107.32;;
45676;SDS011;31390;51.186;6.830;2023-04-07T01:58:03;292.60;;;111.32;;
45676;SDS011;31390;51.186;6.830;2023-04-07T02:00:31;475.35;;;140.88;;
45676;SDS011;31390;51.186;6.830;2023-04-07T02:03:08;277.27;;;93.20;;
45676;SDS011;31390;51.186;6.830;2023-04-07T02:05:37;389.85;;;124.00;;
45676;SDS011;31390;51.186;6.830;2023-04-07T02:08:07;256.95;;;101.03;;
45676;SDS011;31390;51.186;6.830;2023-04-07T02:10:36;427.27;;;135.82;;
45676;SDS011;31390;51.186;6.830;2023-04-07T02:13:04;352.40;;;115.95;;
45676;SDS011;31390;51.186;6.830;2023-04-07T02:15:31;336.63;;;109.75;;
45676;SDS011;31390;51.186;6.830;2023-04-07T02:17:59;413.13;;;121.97;;
45676;SDS011;31390;51.186;6.830;2023-04-07T02:20:26;419.83;;;129.82;;
45676;SDS011;31390;51.186;6.830;2023-04-07T02:22:53;242.55;;;94.95;;
45676;SDS011;31390;51.186;6.830;2023-04-07T02:25:24;172.05;;;78.65;;
45676;SDS011;31390;51.186;6.830;2023-04-07T02:27:52;396.65;;;120.28;;
45676;SDS011;31390;51.186;6.830;2023-04-07T02:30:19;176.10;;;80.70;;
45676;SDS011;31390;51.186;6.830;2023-04-07T02:32:45;487.05;;;138.35;;
45676;SDS011;31390;51.186;6.830;2023-04-07T02:35:13;278.63;;;101.18;;
45676;SDS011;31390;51.186;6.830;2023-04-07T02:37:40;500.27;;;147.50;;
45676;SDS011;31390;51.186;6.830;2023-04-07T02:40:07;468.30;;;142.60;;
45676;SDS011;31390;51.186;6.830;2023-04-07T02:42:33;414.63;;;130.35;;
45676;SDS011;31390;51.186;6.830;2023-04-07T02:45:02;530.42;;;150.07;;
45676;SDS011;31390;51.186;6.830;2023-04-07T02:47:29;512.97;;;142.05;;
45676;SDS011;31390;51.186;6.830;2023-04-07T02:49:55;338.60;;;112.78;;
45676;SDS011;31390;51.186;6.830;2023-04-07T02:52:22;440.02;;;132.57;;
45676;SDS011;31390;51.186;6.830;2023-04-07T02:54:48;210.90;;;89.43;;
45676;SDS011;31390;51.186;6.830;2023-04-07T02:57:19;384.80;;;120.72;;
45676;SDS011;31390;51.186;6.830;2023-04-07T02:59:46;515.40;;;141.70;;
45676;SDS011;31390;51.186;6.830;2023-04-07T03:02:14;520.42;;;145.02;;
45676;SDS011;31390;51.186;6.830;2023-04-07T03:04:40;419.52;;;125.07;;
45676;SDS011;31390;51.186;6.830;2023-04-07T03:07:07;391.15;;;116.95;;
45676;SDS011;31390;51.186;6.830;2023-04-07T03:09:34;423.80;;;123.30;;
45676;SDS011;31390;51.186;6.830;2023-04-07T03:12:00;444.70;;;128.05;;
45676;SDS011;31390;51.186;6.830;2023-04-07T03:14:32;382.70;;;113.93;;
45676;SDS011;31390;51.186;6.830;2023-04-07T03:16:59;187.20;;;78.68;;
45676;SDS011;31390;51.186;6.830;2023-04-07T03:19:26;418.98;;;119.53;;
45676;SDS011;31390;51.186;6.830;2023-04-07T03:21:52;150.02;;;70.28;;
45676;SDS011;31390;51.186;6.830;2023-04-07T03:24:19;188.45;;;72.15;;
45676;SDS011;31390;51.186;6.830;2023-04-07T03:26:46;110.82;;;55.58;;
45676;SDS011;31390;51.186;6.830;2023-04-07T03:29:19;279.45;;;86.20;;
45676;SDS011;31390;51.186;6.830;2023-04-07T03:31:46;121.57;;;57.50;;
45676;SDS011;31390;51.186;6.830;2023-04-07T03:34:16;205.25;;;70.60;;
45676;SDS011;31390;51.186;6.830;2023-04-07T03:36:42;140.40;;;59.53;;
45676;SDS011;31390;51.186;6.830;2023-04-07T03:39:09;128.45;;;57.20;;
45676;SDS011;31390;51.186;6.830;2023-04-07T03:41:35;138.32;;;60.03;;
45676;SDS011;31390;51.186;6.830;2023-04-07T03:44:03;141.20;;;58.17;;
45676;SDS011;31390;51.186;6.830;2023-04-07T03:46:30;162.98;;;63.15;;
45676;SDS011;31390;51.186;6.830;2023-04-07T03:48:57;102.55;;;50.80;;
45676;SDS011;31390;51.186;6.830;2023-04-07T03:51:24;154.35;;;59.80;;
45676;SDS011;31390;51.186;6.830;2023-04-07T03:53:54;120.20;;;53.67;;
45676;SDS011;31390;51.186;6.830;2023-04-07T03:56:29;271.17;;;78.53;;
45676;SDS011;31390;51.186;6.830;2023-04-07T03:58:57;202.70;;;64.00;;
45676;SDS011;31390;51.186;6.830;2023-04-07T04:01:28;190.07;;;64.22;;
45676;SDS011;31390;51.186;6.830;2023-04-07T04:03:57;130.77;;;52.38;;
45676;SDS011;31390;51.186;6.830;2023-04-07T04:06:26;174.57;;;61.08;;
45676;SDS011;31390;51.186;6.830;2023-04-07T04:08:59;99.28;;;48.10;;
45676;SDS011;31390;51.186;6.830;2023-04-07T04:11:27;272.00;;;76.78;;
45676;SDS011;31390;51.186;6.830;2023-04-07T04:14:00;136.60;;;54.17;;
45676;SDS011;31390;51.186;6.830;2023-04-07T04:16:27;227.32;;;69.50;;
45676;SDS011;31390;51.186;6.830;2023-04-07T04:18:57;165.52;;;58.38;;
45676;SDS011;31390;51.186;6.830;2023-04-07T04:21:25;74.22;;;40.58;;
45676;SDS011;31390;51.186;6.830;2023-04-07T04:23:52;75.65;;;41.40;;
45676;SDS011;31390;51.186;6.830;2023-04-07T04:26:19;179.65;;;58.58;;
45676;SDS011;31390;51.186;6.830;2023-04-07T04:28:54;85.40;;;42.00;;
45676;SDS011;31390;51.186;6.830;2023-04-07T04:31:21;66.30;;;36.10;;
45676;SDS011;31390;51.186;6.830;2023-04-07T04:33:48;52.95;;;33.38;;
45676;SDS011;31390;51.186;6.830;2023-04-07T04:36:15;76.95;;;39.33;;
45676;SDS011;31390;51.186;6.830;2023-04-07T04:38:41;57.03;;;33.97;;
45676;SDS011;31390;51.186;6.830;2023-04-07T04:41:14;179.18;;;56.40;;
45676;SDS011;31390;51.186;6.830;2023-04-07T04:43:41;94.80;;;41.47;;
45676;SDS011;31390;51.186;6.830;2023-04-07T04:46:10;78.18;;;37.72;;
45676;SDS011;31390;51.186;6.830;2023-04-07T04:48:40;179.48;;;55.00;;
45676;SDS011;31390;51.186;6.830;2023-04-07T04:51:06;187.00;;;54.42;;
45676;SDS011;31390;51.186;6.830;2023-04-07T04:53:35;67.53;;;33.67;;
45676;SDS011;31390;51.186;6.830;2023-04-07T04:56:01;51.45;;;28.05;;
45676;SDS011;31390;51.186;6.830;2023-04-07T04:58:47;102.90;;;38.90;;
45676;SDS011;31390;51.186;6.830;2023-04-07T05:01:22;112.80;;;41.45;;
45676;SDS011;31390;51.186;6.830;2023-04-07T05:03:58;58.90;;;28.00;;
45676;SDS011;31390;51.186;6.830;2023-04-07T05:06:27;58.95;;;27.38;;
45676;SDS011;31390;51.186;6.830;2023-04-07T05:08:57;45.58;;;25.23;;
45676;SDS011;31390;51.186;6.830;2023-04-07T05:11:29;39.55;;;23.27;;
45676;SDS011;31390;51.186;6.830;2023-04-07T05:13:56;85.40;;;33.00;;
45676;SDS011;31390;51.186;6.830;2023-04-07T05:16:23;39.15;;;22.73;;
45676;SDS011;31390;51.186;6.830;2023-04-07T05:18:50;44.45;;;23.27;;
45676;SDS011;31390;51.186;6.830;2023-04-07T05:21:17;37.33;;;21.02;;
45676;SDS011;31390;51.186;6.830;2023-04-07T05:23:45;48.15;;;23.42;;
45676;SDS011;31390;51.186;6.830;2023-04-07T05:26:12;85.30;;;30.30;;
45676;SDS011;31390;51.186;6.830;2023-04-07T05:28:39;52.33;;;23.42;;
45676;SDS011;31390;51.186;6.830;2023-04-07T05:31:12;78.85;;;28.70;;
45676;SDS011;31390;51.186;6.830;2023-04-07T05:33:39;57.03;;;26.00;;
45676;SDS011;31390;51.186;6.830;2023-04-07T05:36:06;77.60;;;28.67;;
45676;SDS011;31390;51.186;6.830;2023-04-07T05:38:33;49.17;;;23.00;;
45676;SDS011;31390;51.186;6.830;2023-04-07T05:41:07;94.15;;;32.10;;
45676;SDS011;31390;51.186;6.830;2023-04-07T05:43:35;74.82;;;27.30;;
45676;SDS011;31390;51.186;6.830;2023-04-07T05:46:01;93.05;;;32.45;;
45676;SDS011;31390;51.186;6.830;2023-04-07T05:48:29;84.50;;;29.98;;
45676;SDS011;31390;51.186;6.830;2023-04-07T05:50:56;79.10;;;30.08;;
45676;SDS011;31390;51.186;6.830;2023-04-07T05:53:23;76.18;;;29.90;;
45676;SDS011;31390;51.186;6.830;2023-04-07T05:55:50;81.60;;;30.33;;
45676;SDS011;31390;51.186;6.830;2023-04-07T05:58:35;43.08;;;23.02;;
45676;SDS011;31390;51.186;6.830;2023-04-07T06:01:02;68.43;;;27.33;;
45676;SDS011;31390;51.186;6.830;2023-04-07T06:03:29;34.95;;;19.25;;
45676;SDS011;31390;51.186;6.830;2023-04-07T06:06:11;39.63;;;21.50;;
45676;SDS011;31390;51.186;6.830;2023-04-07T06:08:38;38.85;;;20.83;;
45676;SDS011;31390;51.186;6.830;2023-04-07T06:11:04;60.00;;;24.63;;
45676;SDS011;31390;51.186;6.830;2023-04-07T06:13:32;93.22;;;31.17;;
45676;SDS011;31390;51.186;6.830;2023-04-07T06:15:59;34.33;;;19.33;;
45676;SDS011;31390;51.186;6.830;2023-04-07T06:18:25;84.88;;;30.10;;
45676;SDS011;31390;51.186;6.830;2023-04-07T06:20:52;59.70;;;24.33;;
45676;SDS011;31390;51.186;6.830;2023-04-07T06:23:18;74.55;;;27.88;;
45676;SDS011;31390;51.186;6.830;2023-04-07T06:25:45;72.45;;;28.20;;
45676;SDS011;31390;51.186;6.830;2023-04-07T06:28:11;37.47;;;21.05;;
45676;SDS011;31390;51.186;6.830;2023-04-07T06:30:39;52.33;;;23.08;;
45676;SDS011;31390;51.186;6.830;2023-04-07T06:33:09;33.92;;;18.85;;
45676;SDS011;31390;51.186;6.830;2023-04-07T06:35:38;49.28;;;24.08;;
45676;SDS011;31390;51.186;6.830;2023-04-07T06:38:05;52.42;;;23.73;;
45676;SDS011;31390;51.186;6.830;2023-04-07T06:40:32;49.08;;;23.38;;
45676;SDS011;31390;51.186;6.830;2023-04-07T06:42:59;128.15;;;37.10;;
45676;SDS011;31390;51.186;6.830;2023-04-07T06:45:34;54.35;;;24.20;;
45676;SDS011;31390;51.186;6.830;2023-04-07T06:48:01;89.43;;;31.42;;
45676;SDS011;31390;51.186;6.830;2023-04-07T06:50:27;90.18;;;32.25;;
45676;SDS011;31390;51.186;6.830;2023-04-07T06:52:54;68.10;;;28.25;;
45676;SDS011;31390;51.186;6.830;2023-04-07T06:55:20;79.65;;;30.23;;
45676;SDS011;31390;51.186;6.830;2023-04-07T06:57:47;30.73;;;18.75;;
45676;SDS011;31390;51.186;6.830;2023-04-07T07:00:13;83.80;;;29.02;;
45676;SDS011;31390;51.186;6.830;2023-04-07T07:02:40;67.15;;;26.25;;
45676;SDS011;31390;51.186;6.830;2023-04-07T07:05:07;50.78;;;23.90;;
45676;SDS011;31390;51.186;6.830;2023-04-07T07:07:33;31.63;;;18.13;;
45676;SDS011;31390;51.186;6.830;2023-04-07T07:10:00;84.65;;;28.95;;
45676;SDS011;31390;51.186;6.830;2023-04-07T07:12:27;47.53;;;21.48;;
45676;SDS011;31390;51.186;6.830;2023-04-07T07:14:53;41.28;;;20.90;;
45676;SDS011;31390;51.186;6.830;2023-04-07T07:17:20;48.80;;;21.70;;
45676;SDS011;31390;51.186;6.830;2023-04-07T07:19:47;40.65;;;20.25;;
45676;SDS011;31390;51.186;6.830;2023-04-07T07:22:13;50.45;;;21.85;;
45676;SDS011;31390;51.186;6.830;2023-04-07T07:24:40;70.63;;;26.35;;
45676;SDS011;31390;51.186;6.830;2023-04-07T07:27:06;50.60;;;22.60;;
45676;SDS011;31390;51.186;6.830;2023-04-07T07:29:33;32.42;;;18.70;;
45676;SDS011;31390;51.186;6.830;2023-04-07T07:31:59;79.07;;;27.88;;
45676;SDS011;31390;51.186;6.830;2023-04-07T07:34:26;38.22;;;20.48;;
45676;SDS011;31390;51.186;6.830;2023-04-07T07:36:52;62.40;;;26.23;;
45676;SDS011;31390;51.186;6.830;2023-04-07T07:39:19;60.42;;;25.55;;
45676;SDS011;31390;51.186;6.830;2023-04-07T07:41:45;46.03;;;22.42;;
45676;SDS011;31390;51.186;6.830;2023-04-07T07:44:12;46.40;;;24.40;;
45676;SDS011;31390;51.186;6.830;2023-04-07T07:46:38;56.17;;;24.88;;
45676;SDS011;31390;51.186;6.830;2023-04-07T07:49:05;41.85;;;21.58;;
45676;SDS011;31390;51.186;6.830;2023-04-07T07:51:32;39.38;;;22.48;;
45676;SDS011;31390;51.186;6.830;2023-04-07T07:53:58;61.63;;;27.20;;
45676;SDS011;31390;51.186;6.830;2023-04-07T07:56:25;64.90;;;27.73;;
45676;SDS011;31390;51.186;6.830;2023-04-07T07:58:51;54.22;;;25.58;;
45676;SDS011;31390;51.186;6.830;2023-04-07T08:01:18;69.35;;;29.02;;
45676;SDS011;31390;51.186;6.830;2023-04-07T08:03:44;62.70;;;28.27;;
45676;SDS011;31390;51.186;6.830;2023-04-07T08:06:11;64.32;;;29.73;;
45676;SDS011;31390;51.186;6.830;2023-04-07T08:08:38;64.60;;;29.20;;
45676;SDS011;31390;51.186;6.830;2023-04-07T08:11:04;72.75;;;30.85;;
45676;SDS011;31390;51.186;6.830;2023-04-07T08:13:31;75.45;;;31.05;;
45676;SDS011;31390;51.186;6.830;2023-04-07T08:15:57;81.80;;;33.13;;
45676;SDS011;31390;51.186;6.830;2023-04-07T08:18:24;70.22;;;30.63;;
45676;SDS011;31390;51.186;6.830;2023-04-07T08:20:50;98.13;;;35.42;;
45676;SDS011;31390;51.186;6.830;2023-04-07T08:23:18;79.57;;;32.30;;
45676;SDS011;31390;51.186;6.830;2023-04-07T08:25:44;98.95;;;35.92;;
45676;SDS011;31390;51.186;6.830;2023-04-07T08:28:11;94.40;;;35.90;;
45676;SDS011;31390;51.186;6.830;2023-04-07T08:30:37;71.80;;;31.15;;
45676;SDS011;31390;51.186;6.830;2023-04-07T08:33:04;92.20;;;35.13;;
45676;SDS011;31390;51.186;6.830;2023-04-07T08:35:31;54.22;;;27.63;;
45676;SDS011;31390;51.186;6.830;2023-04-07T08:37:57;53.30;;;26.33;;
45676;SDS011;31390;51.186;6.830;2023-04-07T08:40:24;76.10;;;31.33;;
45676;SDS011;31390;51.186;6.830;2023-04-07T08:42:51;56.67;;;27.88;;
45676;SDS011;31390;51.186;6.830;2023-04-07T08:45:17;40.42;;;24.05;;
45676;SDS011;31390;51.186;6.830;2023-04-07T08:47:45;73.88;;;31.30;;
45676;SDS011;31390;51.186;6.830;2023-04-07T08:50:13;55.40;;;26.73;;
45676;SDS011;31390;51.186;6.830;2023-04-07T08:52:43;62.42;;;28.67;;
45676;SDS011;31390;51.186;6.830;2023-04-07T08:55:11;69.45;;;30.85;;
45676;SDS011;31390;51.186;6.830;2023-04-07T08:57:38;74.60;;;31.77;;
45676;SDS011;31390;51.186;6.830;2023-04-07T09:00:05;82.25;;;32.83;;
45676;SDS011;31390;51.186;6.830;2023-04-07T09:02:33;73.78;;;31.98;;
45676;SDS011;31390;51.186;6.830;2023-04-07T09:05:01;41.50;;;24.02;;
45676;SDS011;31390;51.186;6.830;2023-04-07T09:07:30;48.83;;;26.45;;
45676;SDS011;31390;51.186;6.830;2023-04-07T09:09:56;58.13;;;27.33;;
45676;SDS011;31390;51.186;6.830;2023-04-07T09:12:23;48.95;;;25.88;;
45676;SDS011;31390;51.186;6.830;2023-04-07T09:14:49;58.67;;;28.20;;
45676;SDS011;31390;51.186;6.830;2023-04-07T09:17:16;76.38;;;31.55;;
45676;SDS011;31390;51.186;6.830;2023-04-07T09:19:43;48.88;;;25.25;;
45676;SDS011;31390;51.186;6.830;2023-04-07T09:22:09;60.53;;;28.08;;
45676;SDS011;31390;51.186;6.830;2023-04-07T09:24:40;91.80;;;34.53;;
45676;SDS011;31390;51.186;6.830;2023-04-07T09:29:42;53.72;;;25.20;;
45676;SDS011;31390;51.186;6.830;2023-04-07T09:32:09;78.85;;;31.20;;
45676;SDS011;31390;51.186;6.830;2023-04-07T09:34:37;51.97;;;25.98;;
45676;SDS011;31390;51.186;6.830;2023-04-07T09:37:06;61.20;;;28.83;;
45676;SDS011;31390;51.186;6.830;2023-04-07T09:39:51;76.57;;;30.52;;
45676;SDS011;31390;51.186;6.830;2023-04-07T09:42:21;55.17;;;27.90;;
45676;SDS011;31390;51.186;6.830;2023-04-07T09:44:48;37.72;;;21.80;;
45676;SDS011;31390;51.186;6.830;2023-04-07T09:47:14;45.30;;;24.50;;
45676;SDS011;31390;51.186;6.830;2023-04-07T09:49:48;55.05;;;26.95;;
45676;SDS011;31390;51.186;6.830;2023-04-07T09:52:15;39.47;;;24.15;;
45676;SDS011;31390;51.186;6.830;2023-04-07T09:54:43;53.35;;;27.08;;
45676;SDS011;31390;51.186;6.830;2023-04-07T09:57:10;33.55;;;20.65;;
45676;SDS011;31390;51.186;6.830;2023-04-07T09:59:38;57.92;;;27.80;;
45676;SDS011;31390;51.186;6.830;2023-04-07T10:02:07;47.83;;;26.75;;
45676;SDS011;31390;51.186;6.830;2023-04-07T10:04:34;36.78;;;22.65;;
45676;SDS011;31390;51.186;6.830;2023-04-07T10:07:00;40.97;;;23.60;;
45676;SDS011;31390;51.186;6.830;2023-04-07T10:09:29;33.63;;;21.48;;
45676;SDS011;31390;51.186;6.830;2023-04-07T10:11:56;35.33;;;23.23;;
45676;SDS011;31390;51.186;6.830;2023-04-07T10:14:27;46.38;;;26.25;;
45676;SDS011;31390;51.186;6.830;2023-04-07T10:16:55;32.88;;;22.02;;
45676;SDS011;31390;51.186;6.830;2023-04-07T10:19:23;29.23;;;20.73;;
45676;SDS011;31390;51.186;6.830;2023-04-07T10:21:50;34.92;;;21.95;;
45676;SDS011;31390;51.186;6.830;2023-04-07T10:24:25;49.63;;;26.77;;
45676;SDS011;31390;51.186;6.830;2023-04-07T10:26:56;51.10;;;27.42;;
45676;SDS011;31390;51.186;6.830;2023-04-07T10:29:24;37.78;;;23.52;;
45676;SDS011;31390;51.186;6.830;2023-04-07T10:31:52;26.48;;;19.13;;
45676;SDS011;31390;51.186;6.830;2023-04-07T10:34:50;45.28;;;23.95;;
45676;SDS011;31390;51.186;6.830;2023-04-07T10:37:11;30.77;;;19.15;;
45676;SDS011;31390;51.186;6.830;2023-04-07T10:39:39;42.13;;;23.90;;
45676;SDS011;31390;51.186;6.830;2023-04-07T10:42:06;28.75;;;19.63;;
45676;SDS011;31390;51.186;6.830;2023-04-07T10:47:08;28.40;;;20.45;;
45676;SDS011;31390;51.186;6.830;2023-04-07T10:49:34;22.15;;;17.48;;
45676;SDS011;31390;51.186;6.830;2023-04-07T10:52:34;25.83;;;17.85;;
45676;SDS011;31390;51.186;6.830;2023-04-07T10:55:27;21.98;;;16.65;;
45676;SDS011;31390;51.186;6.830;2023-04-07T10:58:11;22.33;;;16.27;;
45676;SDS011;31390;51.186;6.830;2023-04-07T11:00:29;21.98;;;17.05;;
45676;SDS011;31390;51.186;6.830;2023-04-07T11:02:56;22.13;;;16.30;;
45676;SDS011;31390;51.186;6.830;2023-04-07T11:05:23;23.98;;;16.65;;
45676;SDS011;31390;51.186;6.830;2023-04-07T11:07:51;25.17;;;18.10;;
45676;SDS011;31390;51.186;6.830;2023-04-07T11:10:20;21.67;;;17.40;;
45676;SDS011;31390;51.186;6.830;2023-04-07T11:12:57;39.33;;;19.58;;
45676;SDS011;31390;51.186;6.830;2023-04-07T11:15:23;27.73;;;18.42;;
45676;SDS011;31390;51.186;6.830;2023-04-07T11:20:43;28.08;;;18.75;;
45676;SDS011;31390;51.186;6.830;2023-04-07T11:23:12;28.13;;;18.55;;
45676;SDS011;31390;51.186;6.830;2023-04-07T11:25:40;30.13;;;19.20;;
45676;SDS011;31390;51.186;6.830;2023-04-07T11:28:08;31.13;;;19.40;;
45676;SDS011;31390;51.186;6.830;2023-04-07T11:30:35;25.17;;;18.27;;
45676;SDS011;31390;51.186;6.830;2023-04-07T11:33:01;22.77;;;16.83;;
45676;SDS011;31390;51.186;6.830;2023-04-07T11:35:28;25.20;;;17.17;;
45676;SDS011;31390;51.186;6.830;2023-04-07T11:37:59;17.80;;;14.95;;
45676;SDS011;31390;51.186;6.830;2023-04-07T11:40:32;22.92;;;16.38;;
45676;SDS011;31390;51.186;6.830;2023-04-07T11:43:00;16.08;;;13.77;;
45676;SDS011;31390;51.186;6.830;2023-04-07T11:45:29;19.33;;;13.95;;
45676;SDS011;31390;51.186;6.830;2023-04-07T11:47:56;15.27;;;12.95;;
45676;SDS011;31390;51.186;6.830;2023-04-07T11:50:38;17.75;;;13.82;;
45676;SDS011;31390;51.186;6.830;2023-04-07T11:53:05;16.30;;;12.93;;
45676;SDS011;31390;51.186;6.830;2023-04-07T11:55:31;20.10;;;13.55;;
45676;SDS011;31390;51.186;6.830;2023-04-07T11:58:05;17.45;;;12.98;;
45676;SDS011;31390;51.186;6.830;2023-04-07T12:00:31;17.02;;;13.27;;
45676;SDS011;31390;51.186;6.830;2023-04-07T12:03:07;14.00;;;11.65;;
45676;SDS011;31390;51.186;6.830;2023-04-07T12:05:44;12.63;;;11.23;;
45676;SDS011;31390;51.186;6.830;2023-04-07T12:08:14;13.20;;;11.70;;
45676;SDS011;31390;51.186;6.830;2023-04-07T12:10:42;17.00;;;12.32;;
45676;SDS011;31390;51.186;6.830;2023-04-07T12:13:08;16.95;;;12.90;;
45676;SDS011;31390;51.186;6.830;2023-04-07T12:15:35;15.48;;;13.88;;
45676;SDS011;31390;51.186;6.830;2023-04-07T12:18:04;16.17;;;12.23;;
45676;SDS011;31390;51.186;6.830;2023-04-07T12:20:31;13.68;;;12.18;;
45676;SDS011;31390;51.186;6.830;2023-04-07T12:22:58;14.00;;;11.63;;
45676;SDS011;31390;51.186;6.830;2023-04-07T12:25:25;12.70;;;11.30;;
45676;SDS011;31390;51.186;6.830;2023-04-07T12:27:52;15.93;;;13.10;;
45676;SDS011;31390;51.186;6.830;2023-04-07T12:30:19;16.73;;;13.20;;
45676;SDS011;31390;51.186;6.830;2023-04-07T12:32:46;16.08;;;12.75;;
45676;SDS011;31390;51.186;6.830;2023-04-07T12:35:13;13.60;;;12.20;;
45676;SDS011;31390;51.186;6.830;2023-04-07T12:37:39;14.77;;;12.95;;
45676;SDS011;31390;51.186;6.830;2023-04-07T12:40:06;16.52;;;14.60;;
45676;SDS011;31390;51.186;6.830;2023-04-07T12:42:33;14.18;;;12.40;;
45676;SDS011;31390;51.186;6.830;2023-04-07T12:44:59;13.93;;;12.38;;
45676;SDS011;31390;51.186;6.830;2023-04-07T12:47:26;14.27;;;12.80;;
45676;SDS011;31390;51.186;6.830;2023-04-07T12:49:52;14.52;;;13.02;;
45676;SDS011;31390;51.186;6.830;2023-04-07T12:52:19;17.00;;;13.75;;
45676;SDS011;31390;51.186;6.830;2023-04-07T12:54:46;14.40;;;12.90;;
45676;SDS011;31390;51.186;6.830;2023-04-07T12:57:12;17.73;;;14.52;;
45676;SDS011;31390;51.186;6.830;2023-04-07T12:59:39;13.18;;;11.60;;
45676;SDS011;31390;51.186;6.830;2023-04-07T13:02:06;15.70;;;12.27;;
45676;SDS011;31390;51.186;6.830;2023-04-07T13:04:33;10.68;;;9.55;;
45676;SDS011;31390;51.186;6.830;2023-04-07T13:07:01;12.25;;;10.93;;
45676;SDS011;31390;51.186;6.830;2023-04-07T13:09:28;14.27;;;12.05;;
45676;SDS011;31390;51.186;6.830;2023-04-07T13:11:54;12.68;;;11.38;;
45676;SDS011;31390;51.186;6.830;2023-04-07T13:14:22;14.63;;;11.77;;
45676;SDS011;31390;51.186;6.830;2023-04-07T13:16:49;11.73;;;10.52;;
45676;SDS011;31390;51.186;6.830;2023-04-07T13:19:16;11.45;;;9.52;;
45676;SDS011;31390;51.186;6.830;2023-04-07T13:21:42;11.63;;;10.00;;
45676;SDS011;31390;51.186;6.830;2023-04-07T13:24:13;11.43;;;10.07;;
45676;SDS011;31390;51.186;6.830;2023-04-07T13:26:39;12.77;;;9.55;;
45676;SDS011;31390;51.186;6.830;2023-04-07T13:29:06;12.27;;;10.25;;
45676;SDS011;31390;51.186;6.830;2023-04-07T13:31:32;16.35;;;11.88;;
45676;SDS011;31390;51.186;6.830;2023-04-07T13:33:59;12.57;;;11.20;;
45676;SDS011;31390;51.186;6.830;2023-04-07T13:36:26;14.00;;;10.75;;
45676;SDS011;31390;51.186;6.830;2023-04-07T13:38:53;12.98;;;11.55;;
45676;SDS011;31390;51.186;6.830;2023-04-07T13:41:19;15.98;;;13.20;;
45676;SDS011;31390;51.186;6.830;2023-04-07T13:43:47;14.18;;;11.57;;
45676;SDS011;31390;51.186;6.830;2023-04-07T13:46:14;14.45;;;11.40;;
45676;SDS011;31390;51.186;6.830;2023-04-07T13:48:54;13.38;;;10.70;;
45676;SDS011;31390;51.186;6.830;2023-04-07T13:51:20;14.48;;;12.57;;
45676;SDS011;31390;51.186;6.830;2023-04-07T13:53:47;13.93;;;12.40;;
45676;SDS011;31390;51.186;6.830;2023-04-07T13:56:14;12.32;;;10.80;;
45676;SDS011;31390;51.186;6.830;2023-04-07T13:58:40;14.52;;;12.13;;
45676;SDS011;31390;51.186;6.830;2023-04-07T14:01:07;13.80;;;12.25;;
45676;SDS011;31390;51.186;6.830;2023-04-07T14:03:34;14.00;;;12.40;;
45676;SDS011;31390;51.186;6.830;2023-04-07T14:06:01;16.88;;;14.50;;
45676;SDS011;31390;51.186;6.830;2023-04-07T14:08:27;14.75;;;12.63;;
45676;SDS011;31390;51.186;6.830;2023-04-07T14:10:54;14.70;;;13.20;;
45676;SDS011;31390;51.186;6.830;2023-04-07T14:13:21;16.25;;;14.48;;
45676;SDS011;31390;51.186;6.830;2023-04-07T14:15:48;22.15;;;15.88;;
45676;SDS011;31390;51.186;6.830;2023-04-07T14:18:15;17.65;;;14.43;;
45676;SDS011;31390;51.186;6.830;2023-04-07T14:20:42;20.85;;;16.17;;
45676;SDS011;31390;51.186;6.830;2023-04-07T14:23:09;20.50;;;16.65;;
45676;SDS011;31390;51.186;6.830;2023-04-07T14:25:36;16.80;;;15.00;;
45676;SDS011;31390;51.186;6.830;2023-04-07T14:28:03;21.90;;;17.15;;
45676;SDS011;31390;51.186;6.830;2023-04-07T14:30:30;16.95;;;15.13;;
45676;SDS011;31390;51.186;6.830;2023-04-07T14:32:57;23.42;;;14.23;;